NCAR-RAP Real-Time Weather Data

Output produced by METARs form (26 May 2022  08:21 UTC)
found at http://weather.rap.ucar.edu/surface/
 
KIND 260754Z 16008KT 10SM SCT029 BKN047 OVC110 20/17 A2988 RMK AO2 RAB0659E43 SLP111 P0000 T02000172
KIND 260654Z 17011KT 10SM BKN045 BKN055 21/17 A2989 RMK AO2 RAE04 SLP115 P0000 T02060172
KIND 260554Z 18012KT 10SM -RA FEW046 BKN070 OVC110 21/17 A2989 RMK AO2 RAB50 SLP116 P0000 60000 T02110172 10222 20211 53004
KIND 260454Z 17012KT 10SM FEW050 SCT070 BKN120 22/18 A2988 RMK AO2 SLP112 T02170178 402830167
KIND 260354Z 17010G21KT 10SM BKN060 BKN220 21/18 A2988 RMK AO2 SLP113 T02110183
KIND 260254Z 16011KT 10SM SCT050 SCT140 BKN210 21/19 A2988 RMK AO2 SLP112 T02110189 50001
KIND 260154Z 17012KT 10SM FEW080 SCT140 BKN250 22/19 A2988 RMK AO2 SLP114 T02170189
KIND 260054Z 16009KT 10SM FEW030 SCT080 BKN140 BKN250 22/19 A2987 RMK AO2 SLP112 T02170189
KIND 252354Z 18012KT 10SM FEW030 BKN100 OVC200 22/19 A2988 RMK AO2 RAE2259B15E38 SLP112 P0000 60004 T02220189 10283 20217 50002
KIND 252254Z 16010KT 10SM -RA FEW050 BKN100 OVC250 22/19 A2989 RMK AO2 PK WND 21033/2208 SLP117 CB DSNT N MOV N P0004 T02220194
KIND 252154Z 17022G29KT 10SM -RA FEW040 BKN055CB BKN150 OVC250 26/18 A2987 RMK AO2 PK WND 19029/2154 LTG DSNT E AND W RAB48 SLP110 CB SW MOV N CB DSNT E-SE MOV N P0000 T02560183
KIND 252054Z 15014G25KT 10SM FEW040 SCT050 BKN150 BKN250 28/19 A2987 RMK AO2 LTG DSNT SE SLP109 CB DSNT E-SE MOV N T02780189 58024
KIND 251954Z 19016G21KT 10SM FEW040 BKN050 BKN230 28/19 A2990 RMK AO2 SLP117 CB DSNT E MOV N T02830189
KIND 251854Z 16014G22KT 10SM SCT035 BKN044 BKN055 BKN230 28/19 A2993 RMK AO2 SLP130 T02780194
KIND 251754Z 15012KT 10SM SCT024 SCT035 BKN230 27/20 A2994 RMK AO2 RAE13 SLP133 P0000 60006 T02670200 10267 20183 58018 $
KIND 251710Z 16011KT 10SM -RA SCT027 SCT035 BKN120 BKN230 25/21 A2997 RMK AO2 CB DSNT W P0000 T02500206 $
KIND 251654Z 16011KT 10SM -RA BKN029 BKN039 BKN230 24/20 A2997 RMK AO2 RAE27B48 SLP144 CB DSNT S-W P0000 T02390200 $
KIND 251554Z 15009KT 10SM -RA BKN024 OVC036 22/19 A2999 RMK AO2 RAB52 SLP150 CB DSNT SW-W P0000 T02220189 $
KIND 251454Z 12009KT 10SM FEW010 SCT039 BKN060 21/19 A3000 RMK AO2 RAE18 SLP152 CB DSNT SW-W P0005 60006 T02110194 58006 $
KIND 251419Z 14008KT 9SM SCT011 BKN042 OVC085 19/18 A3001 RMK AO2 RAE18 VCSH SW P0005 T01940183 $
KIND 251354Z 15008KT 6SM -RA BR SCT007 BKN011 BKN075 20/18 A3002 RMK AO2 RAB53 SLP161 P0000 T02000178 $
KIND 251254Z 14007KT 10SM BKN008 BKN035 BKN110 18/17 A3001 RMK AO2 RAE37 SLP159 P0001 T01830172 $
KIND 251154Z 14011KT 7SM -RA BKN008 BKN012 OVC055 18/17 A3001 RMK AO2 RAB21 SLP159 P0002 60024 70024 T01830172 10183 20167 53003
KIND 251136Z 14008KT 4SM R05L/3500VP6000FT -RA BR BKN008 BKN029 OVC050 18/17 A3001 RMK AO2 RAB21 VIS NW-N 1 3/4 P0000 T01780167
KIND 251118Z 13011KT 10SM FEW010 BKN028 OVC044 18/17 A3001 RMK AO2 T01780167
KIND 251109Z 14010KT 10SM BKN013 BKN018 OVC028 18/17 A3001 RMK AO2 T01780167
KIND 251054Z 14010KT 10SM BKN017 OVC027 18/16 A3000 RMK AO2 RAB02E11 SLP156 P0000 T01780161
KIND 250954Z 11009KT 9SM BKN024 OVC029 17/16 A3000 RMK AO2 RAE38 SLP155 P0001 T01720156
KIND 250929Z 12008KT 5SM -RA BR BKN028 OVC033 17/16 A3000 RMK AO2 P0000 T01720156
KIND 250854Z 11009KT 9SM -RA BKN039 BKN048 OVC075 17/16 A3000 RMK AO2 SLP155 P0014 60021 T01670156 56013
KIND 250754Z 12011KT 3SM +RA BR BKN050 OVC065 17/16 A3001 RMK AO2 RAB0658 SLP157 P0007 T01670156
KIND 250654Z 12012KT 10SM FEW017 SCT080 OVC120 18/15 A3002 RMK AO2 SLP160 T01780150
KIND 250554Z 11011KT 10SM SCT140 BKN250 18/14 A3004 RMK AO2 SLP169 T01830144 10228 20183 58008
KIND 250454Z 12009KT 10SM SCT100 BKN250 19/14 A3006 RMK AO2 SLP176 T01890139 402390106
KIND 250354Z 11010KT 10SM FEW110 BKN250 19/13 A3006 RMK AO2 SLP175 T01940128
KIND 250254Z 09009KT 10SM SCT110 BKN250 21/12 A3007 RMK AO2 SLP177 T02060122 51009
KIND 250154Z 10010KT 10SM FEW180 BKN250 21/12 A3006 RMK AO2 SLP176 T02110122
KIND 250054Z 10012KT 10SM FEW180 BKN250 22/12 A3005 RMK AO2 SLP173 T02170122
KIND 242354Z 08013KT 10SM FEW200 BKN250 23/12 A3004 RMK AO2 SLP170 T02280117 10239 20211 58014
KIND 242254Z 09012KT 10SM FEW200 BKN250 23/11 A3006 RMK AO2 SLP176 T02330111
KIND 242154Z 10014KT 10SM FEW200 BKN250 23/11 A3007 RMK AO2 SLP180 T02330111
KIND 242054Z 09014G18KT 10SM FEW150 BKN250 23/10 A3008 RMK AO2 SLP183 T02330100 58019
KIND 241954Z 09012KT 10SM FEW150 BKN250 23/09 A3011 RMK AO2 SLP192 T02280094
KIND 241854Z 10011G19KT 10SM FEW150 BKN250 22/09 A3011 RMK AO2 SLP193 T02220089
KIND 241754Z 11010KT 10SM FEW150 BKN250 21/09 A3014 RMK AO2 SLP202 T02110089 10211 20117 58015
KIND 241654Z 09012G19KT 10SM BKN250 19/08 A3016 RMK AO2 SLP211 T01940083
KIND 241554Z 08009KT 10SM BKN250 19/08 A3018 RMK AO2 SLP216 T01940083
KIND 241454Z 07008KT 10SM SCT250 18/09 A3018 RMK AO2 SLP219 T01780089 58004
KIND 241354Z 05007KT 10SM FEW250 16/08 A3019 RMK AO2 SLP220 T01610078
KIND 241254Z 05006KT 10SM SCT250 14/07 A3020 RMK AO2 SLP224 T01390072
KIND 241154Z 05008KT 10SM BKN250 12/07 A3020 RMK AO2 SLP224 T01170067 10139 20106 53011
KIND 241054Z 04008KT 10SM FEW090 SCT250 11/06 A3018 RMK AO2 SLP218 T01110061
KIND 240954Z 05008KT 10SM FEW030 FEW090 11/07 A3016 RMK AO2 SLP211 T01110067
KIND 240854Z 04007KT 10SM FEW030 SCT090 12/07 A3016 RMK AO2 SLP213 T01170067 55002